Time;durP1;ratioP1;P1;durP2;ratioP2;P2;SDS_P1;SDS_P2;PMS_P1;PMS_P2;Temp;Humidity;BMP_temperature;BMP_pressure;BME280_temperature;BME280_humidity;BME280_pressure;Samples;Min_cycle;Max_cycle;Signal;HPM_P1;HPM_P2
2021/12/29 00:00:51;;;;;;;;;;;;;;;5.08;63.35;99303.03;6311359;22;1288;-96
2021/12/29 00:03:18;;;;;;;;;;;;;;;5.10;63.30;99308.97;6310661;22;1181;-95
2021/12/29 00:05:44;;;;;;;;;;;;;;;5.11;63.19;99307.94;6310915;22;1944;-95
2021/12/29 00:08:10;;;;;;;;;;;;;;;5.12;63.35;99322.13;6310779;22;1415;-95
2021/12/29 00:10:37;;;;;;;;;;;;;;;5.11;63.27;99317.81;6311596;22;1228;-96
2021/12/29 00:13:04;;;;;;;;;;;;;;;5.10;63.14;99318.84;6312339;22;1360;-95
2021/12/29 00:15:30;;;;;;;;;;;;;;;5.10;63.33;99321.53;6310509;22;1245;-93
2021/12/29 00:17:57;;;;;;;;;;;;;;;5.13;63.24;99329.09;6311893;22;1297;-95
2021/12/29 00:20:27;;;;;;;;;;;;;;;5.07;63.38;99333.44;6312467;22;1245;-94
2021/12/29 00:22:54;;;;;;;;;;;;;;;5.09;63.49;99325.19;6313818;22;1388;-96
2021/12/29 00:25:21;;;;;;;;;;;;;;;5.10;63.14;99322.31;6312623;22;1944;-95
2021/12/29 00:27:47;;;;;;;;;;;;;;;5.13;63.19;99323.75;6313771;22;1111;-95
2021/12/29 00:30:14;;;;;;;;;;;;;;;5.12;63.08;99322.94;6315189;22;1409;-96
2021/12/29 00:32:40;;;;;;;;;;;;;;;5.11;63.07;99333.81;6312386;22;1194;-93
2021/12/29 00:35:08;;;;;;;;;;;;;;;5.09;63.20;99336.72;6313728;22;1466;-94
2021/12/29 00:37:34;;;;;;;;;;;;;;;5.06;63.28;99341.63;6312248;22;1145;-94
2021/12/29 00:40:00;;;;;;;;;;;;;;;5.06;63.46;99341.63;6311923;22;1162;-94
2021/12/29 00:42:27;;;;;;;;;;;;;;;5.07;63.16;99344.13;6314268;22;1263;-96
2021/12/29 00:44:54;;;;;;;;;;;;;;;5.09;63.33;99349.22;6315397;22;1268;-95
2021/12/29 00:47:20;;;;;;;;;;;;;;;5.06;63.28;99349.66;6313855;22;1908;-95
2021/12/29 00:49:47;;;;;;;;;;;;;;;5.07;63.36;99353.97;6314431;22;1305;-94
2021/12/29 00:52:14;;;;;;;;;;;;;;;5.08;63.18;99353.75;6314302;22;1315;-95
2021/12/29 00:54:41;;;;;;;;;;;;;;;5.04;63.53;99352.53;6315344;22;1245;-95
2021/12/29 00:57:07;;;;;;;;;;;;;;;5.06;63.39;99344.31;6317843;22;1488;-94
2021/12/29 00:59:34;;;;;;;;;;;;;;;5.07;63.50;99348.63;6319190;22;1150;-93
2021/12/29 01:02:00;;;;;;;;;;;;;;;5.07;63.48;99353.97;6320749;22;1266;-94
2021/12/29 01:04:27;;;;;;;;;;;;;;;5.09;63.15;99357.22;6318757;22;1269;-96
2021/12/29 01:06:54;;;;;;;;;;;;;;;5.09;63.25;99363.41;6320866;22;1935;-94
2021/12/29 01:09:22;;;;;;;;;;;;;;;5.10;63.02;99364.22;6321419;22;1343;-95
2021/12/29 01:11:48;;;;;;;;;;;;;;;5.11;63.01;99363.19;6319945;22;1154;-96
2021/12/29 01:14:21;;;;;;;;;;;;;;;5.12;63.18;99365.66;6322502;22;1208;-95
2021/12/29 01:16:49;;;;;;;;;;;;;;;5.10;63.16;99374.91;6320800;22;1205;-94
2021/12/29 01:19:15;;;;;;;;;;;;;;;5.13;62.99;99379.81;6320047;22;1190;-95
2021/12/29 01:21:42;;;;;;;;;;;;;;;5.11;63.12;99385.34;6322847;22;1318;-95
2021/12/29 01:24:08;;;;;;;;;;;;;;;5.12;63.06;99381.66;6319702;22;1278;-95
2021/12/29 01:26:35;;;;;;;;;;;;;;;5.14;63.03;99382.25;6321219;22;1938;-94
2021/12/29 01:29:01;;;;;;;;;;;;;;;5.13;62.94;99393.97;6317572;22;1188;-93
2021/12/29 01:31:28;;;;;;;;;;;;;;;5.08;63.20;99391.09;6320953;22;1161;-94
2021/12/29 01:33:54;;;;;;;;;;;;;;;5.13;63.07;99393.97;6322226;22;1130;-96
2021/12/29 01:36:21;;;;;;;;;;;;;;;5.12;62.99;99392.34;6322311;22;1311;-94
2021/12/29 01:38:49;;;;;;;;;;;;;;;5.12;63.03;99386.19;6319827;22;1462;-94
2021/12/29 01:41:16;;;;;;;;;;;;;;;5.11;63.09;99385.34;6345593;22;849;-94
2021/12/29 01:43:42;;;;;;;;;;;;;;;5.07;63.19;99381.47;6319472;22;1239;-94
2021/12/29 01:46:08;;;;;;;;;;;;;;;5.07;63.21;99386.00;6320237;22;1881;-94
2021/12/29 01:48:35;;;;;;;;;;;;;;;5.07;63.27;99388.66;6323339;22;1353;-95
2021/12/29 01:51:01;;;;;;;;;;;;;;;5.08;63.42;99384.97;6324074;22;1200;-94
2021/12/29 01:53:31;;;;;;;;;;;;;;;5.09;63.13;99392.75;6323129;22;1263;-95
2021/12/29 01:55:57;;;;;;;;;;;;;;;5.11;63.14;99389.88;6321962;22;1155;-95
2021/12/29 01:58:24;;;;;;;;;;;;;;;5.07;63.42;99389.47;6324071;22;1334;-96
2021/12/29 02:00:50;;;;;;;;;;;;;;;5.13;62.98;99377.13;6325170;22;1333;-96
2021/12/29 02:03:17;;;;;;;;;;;;;;;5.13;63.02;99387.81;6325395;22;1325;-96
2021/12/29 02:05:44;;;;;;;;;;;;;;;5.12;63.00;99386.19;6322884;22;1944;-94
2021/12/29 02:08:11;;;;;;;;;;;;;;;5.13;62.96;99388.63;6322121;22;1138;-94
2021/12/29 02:10:45;;;;;;;;;;;;;;;5.15;63.03;99386.56;6323833;22;1405;-96
2021/12/29 02:13:12;;;;;;;;;;;;;;;5.13;62.95;99390.50;6321045;22;1395;-95
2021/12/29 02:15:38;;;;;;;;;;;;;;;5.13;63.14;99387.81;6317436;22;1181;-94
2021/12/29 02:18:12;;;;;;;;;;;;;;;5.12;63.07;99384.34;6317056;22;1529;-95
2021/12/29 02:20:41;;;;;;;;;;;;;;;5.12;62.92;99384.34;6317374;22;1603;-96
2021/12/29 02:23:16;;;;;;;;;;;;;;;5.14;63.19;99392.94;6317599;22;1127;-94
2021/12/29 02:25:48;;;;;;;;;;;;;;;5.11;62.94;99388.00;6318204;22;1935;-96
2021/12/29 02:28:17;;;;;;;;;;;;;;;5.13;63.00;99393.16;6317565;22;1434;-95
2021/12/29 02:30:45;;;;;;;;;;;;;;;5.15;62.95;99396.44;6319178;22;1393;-94
2021/12/29 02:33:13;;;;;;;;;;;;;;;5.14;62.98;99394.78;6317018;22;1264;-95
2021/12/29 02:35:40;;;;;;;;;;;;;;;5.11;63.04;99389.88;6318773;22;1708;-94
2021/12/29 02:38:10;;;;;;;;;;;;;;;5.13;63.18;99396.63;6317616;22;1257;-94
2021/12/29 02:40:37;;;;;;;;;;;;;;;5.14;63.06;99400.13;6319167;22;1309;-94
2021/12/29 02:43:03;;;;;;;;;;;;;;;5.15;62.97;99405.25;6317126;22;1169;-94
2021/12/29 02:45:33;;;;;;;;;;;;;;;5.14;62.78;99397.44;6317537;22;1215;-94
2021/12/29 02:48:00;;;;;;;;;;;;;;;5.15;62.88;99399.09;6320170;22;1912;-95
2021/12/29 02:50:26;;;;;;;;;;;;;;;5.12;63.07;99394.19;6319962;22;1340;-95
2021/12/29 02:52:53;;;;;;;;;;;;;;;5.10;62.92;99397.06;6320359;22;1292;-94
2021/12/29 02:55:19;;;;;;;;;;;;;;;5.07;63.25;99397.50;6318340;22;1285;-94
2021/12/29 02:57:46;;;;;;;;;;;;;;;5.10;63.01;99393.56;6319383;22;1442;-96
2021/12/29 03:00:13;;;;;;;;;;;;;;;5.08;63.38;99390.28;6320724;22;1364;-95
2021/12/29 03:02:39;;;;;;;;;;;;;;;5.08;63.07;99392.97;6323281;22;1223;-96
2021/12/29 03:05:07;;;;;;;;;;;;;;;5.08;63.22;99390.28;6320372;22;1412;-95
2021/12/29 03:07:33;;;;;;;;;;;;;;;5.11;62.91;99385.34;6318409;22;1952;-96
2021/12/29 03:10:02;;;;;;;;;;;;;;;5.11;63.10;99392.53;6318519;22;1314;-96
2021/12/29 03:12:28;;;;;;;;;;;;;;;5.10;63.22;99393.56;6320921;22;1178;-96
2021/12/29 03:14:56;;;;;;;;;;;;;;;5.07;63.14;99396.69;6318792;22;1337;-95
2021/12/29 03:17:27;;;;;;;;;;;;;;;5.08;63.19;99383.09;6316649;22;1163;-94
2021/12/29 03:19:54;;;;;;;;;;;;;;;5.12;62.88;99388.84;6320852;22;1224;-96
2021/12/29 03:22:20;;;;;;;;;;;;;;;5.13;62.84;99385.97;6323007;22;1157;-95
2021/12/29 03:24:46;;;;;;;;;;;;;;;5.14;62.97;99392.94;6320217;22;1355;-95
2021/12/29 03:27:13;;;;;;;;;;;;;;;5.12;62.87;99392.34;6317906;22;1908;-95
2021/12/29 03:29:39;;;;;;;;;;;;;;;5.15;62.74;99381.25;6318515;22;1150;-94
2021/12/29 03:32:08;;;;;;;;;;;;;;;5.13;63.08;99377.13;6319626;22;1234;-94
2021/12/29 03:34:35;;;;;;;;;;;;;;;5.13;62.74;99371.81;6320362;22;1375;-94
2021/12/29 03:37:01;;;;;;;;;;;;;;;5.11;63.09;99371.19;6319402;22;1177;-94
2021/12/29 03:39:35;;;;;;;;;;;;;;;5.10;62.96;99378.38;6288417;22;1673;-95
2021/12/29 03:42:06;;;;;;;;;;;;;;;5.10;63.02;99375.72;6286445;22;1480;-96
2021/12/29 03:44:32;;;;;;;;;;;;;;;5.09;62.93;99376.75;6289637;22;1162;-96
2021/12/29 03:46:59;;;;;;;;;;;;;;;5.08;63.18;99372.44;6288245;22;1881;-94
2021/12/29 03:49:25;;;;;;;;;;;;;;;5.08;62.99;99376.94;6289221;22;1232;-94
2021/12/29 03:51:52;;;;;;;;;;;;;;;5.08;63.21;99372.44;6288194;22;1463;-94
2021/12/29 03:54:18;;;;;;;;;;;;;;;5.11;62.89;99368.50;6290509;22;1271;-96
2021/12/29 03:56:45;;;;;;;;;;;;;;;5.09;62.90;99373.25;6292629;22;1350;-94
2021/12/29 03:59:15;;;;;;;;;;;;;;;5.11;62.85;99385.34;6319418;22;1206;-95
2021/12/29 04:01:42;;;;;;;;;;;;;;;5.09;63.14;99391.91;6320011;22;1395;-95
2021/12/29 04:04:09;;;;;;;;;;;;;;;5.10;62.94;99391.72;6317566;22;1294;-95
2021/12/29 04:06:35;;;;;;;;;;;;;;;5.09;63.18;99383.91;6314300;22;1909;-94
2021/12/29 04:09:02;;;;;;;;;;;;;;;5.10;62.88;99388.25;6321584;22;1285;-96
2021/12/29 04:11:28;;;;;;;;;;;;;;;5.10;62.89;99382.91;6317618;22;1164;-94
2021/12/29 04:13:55;;;;;;;;;;;;;;;5.10;63.03;99383.72;6318725;22;1224;-96
2021/12/29 04:16:21;;;;;;;;;;;;;;;5.10;63.06;99386.38;6320071;22;1147;-94
2021/12/29 04:19:06;;;;;;;;;;;;;;;5.11;62.96;99384.53;6320459;22;1136;-95
2021/12/29 04:21:33;;;;;;;;;;;;;;;5.08;63.06;99387.63;6326466;22;844;-95
2021/12/29 04:23:59;;;;;;;;;;;;;;;5.09;62.93;99382.09;6322272;22;1128;-95
2021/12/29 04:26:26;;;;;;;;;;;;;;;5.13;62.87;99388.63;6316969;22;1904;-94
2021/12/29 04:28:52;;;;;;;;;;;;;;;5.13;62.77;99385.16;6318473;22;1317;-94
2021/12/29 04:31:19;;;;;;;;;;;;;;;5.10;62.93;99385.56;6317316;22;1273;-96
2021/12/29 04:33:45;;;;;;;;;;;;;;;5.11;62.84;99387.19;6313362;22;1310;-95
2021/12/29 04:36:12;;;;;;;;;;;;;;;5.12;62.74;99396.88;6310843;22;1353;-96
2021/12/29 04:38:38;;;;;;;;;;;;;;;5.10;62.84;99383.72;6312440;22;1428;-96
2021/12/29 04:41:05;;;;;;;;;;;;;;;5.11;62.87;99388.00;6312398;22;1249;-95
2021/12/29 04:43:31;;;;;;;;;;;;;;;5.10;63.02;99391.72;6313261;22;1349;-96
2021/12/29 04:45:58;;;;;;;;;;;;;;;5.07;63.20;99388.66;6312670;22;1193;-95
2021/12/29 04:48:25;;;;;;;;;;;;;;;5.07;62.97;99394.00;6312558;22;1900;-95
2021/12/29 04:51:04;;;;;;;;;;;;;;;5.08;63.04;99406.31;6314183;22;1185;-96
2021/12/29 04:53:33;;;;;;;;;;;;;;;5.10;62.83;99405.06;6316193;22;1361;-95
2021/12/29 04:55:59;;;;;;;;;;;;;;;5.11;62.90;99397.88;6313597;22;1365;-95
2021/12/29 04:58:26;;;;;;;;;;;;;;;5.07;62.98;99410.03;6315126;22;1338;-96
2021/12/29 05:00:52;;;;;;;;;;;;;;;5.09;62.91;99413.28;6315022;22;1359;-94
2021/12/29 05:03:19;;;;;;;;;;;;;;;5.09;62.79;99410.59;6314051;22;1260;-96
2021/12/29 05:08:24;;;;;;;;;;;;;;;5.08;62.84;99400.97;6314361;22;1181;-95
2021/12/29 05:08:41;;;;;;;;;;;;;;;5.09;62.91;99406.13;6314731;22;1302;-96
2021/12/29 05:11:07;;;;;;;;;;;;;;;5.11;62.85;99408.56;6315745;22;1220;-94
2021/12/29 05:13:33;;;;;;;;;;;;;;;5.09;62.82;99408.78;6316385;22;1142;-96
2021/12/29 05:16:00;;;;;;;;;;;;;;;5.07;62.78;99410.03;6317284;22;1232;-96
2021/12/29 05:18:27;;;;;;;;;;;;;;;5.07;62.78;99416.16;6318008;22;1276;-96
2021/12/29 05:20:53;;;;;;;;;;;;;;;5.08;62.79;99408.97;6317481;22;1164;-96
2021/12/29 05:23:20;;;;;;;;;;;;;;;5.10;62.81;99407.75;6318171;22;1288;-95
2021/12/29 05:25:47;;;;;;;;;;;;;;;5.08;62.87;99411.66;6317950;22;1215;-96
2021/12/29 05:28:13;;;;;;;;;;;;;;;5.11;62.79;99413.88;6318655;22;1926;-95
2021/12/29 05:30:40;;;;;;;;;;;;;;;5.10;62.84;99412.25;6318784;22;1181;-94
2021/12/29 05:33:06;;;;;;;;;;;;;;;5.09;62.81;99415.94;6314645;22;1267;-94
2021/12/29 05:35:32;;;;;;;;;;;;;;;5.08;62.74;99408.97;6317791;22;1268;-95
2021/12/29 05:37:59;;;;;;;;;;;;;;;5.06;62.92;99411.88;6316469;22;1194;-93
2021/12/29 05:40:27;;;;;;;;;;;;;;;5.06;62.81;99411.03;6316730;22;1266;-96
2021/12/29 05:42:53;;;;;;;;;;;;;;;5.05;62.91;99401.41;6316155;22;1253;-95
2021/12/29 05:45:20;;;;;;;;;;;;;;;5.10;62.69;99413.06;6316943;22;1170;-93
2021/12/29 05:47:47;;;;;;;;;;;;;;;5.09;62.64;99419.47;6315177;22;1911;-94
2021/12/29 05:50:13;;;;;;;;;;;;;;;5.08;62.86;99416.97;6315660;22;1273;-95
2021/12/29 05:52:40;;;;;;;;;;;;;;;5.06;62.71;99414.53;6317602;22;1214;-96
2021/12/29 05:55:08;;;;;;;;;;;;;;;5.10;62.72;99425.59;6319958;22;1243;-94
2021/12/29 05:57:34;;;;;;;;;;;;;;;5.08;62.74;99433.81;6317550;22;1405;-96
2021/12/29 06:00:02;;;;;;;;;;;;;;;5.06;62.65;99427.03;6321522;22;1300;-96
2021/12/29 06:02:29;;;;;;;;;;;;;;;5.06;62.96;99429.72;6314990;22;1165;-94
2021/12/29 06:04:56;;;;;;;;;;;;;;;5.07;62.78;99436.72;6320129;22;1249;-95
2021/12/29 06:07:22;;;;;;;;;;;;;;;5.08;62.72;99436.47;6320727;22;1914;-95
2021/12/29 06:09:49;;;;;;;;;;;;;;;5.09;62.69;99439.97;6321835;22;1271;-96
2021/12/29 06:12:15;;;;;;;;;;;;;;;5.04;62.86;99434.47;6322075;22;1229;-95
2021/12/29 06:14:44;;;;;;;;;;;;;;;5.03;62.84;99430.97;6323849;22;1332;-96
2021/12/29 06:17:13;;;;;;;;;;;;;;;5.04;62.81;99429.13;6322286;22;1185;-96
2021/12/29 06:19:40;;;;;;;;;;;;;;;5.05;62.93;99436.91;6318625;22;1349;-95
2021/12/29 06:22:09;;;;;;;;;;;;;;;5.03;62.72;99435.47;6322216;22;1184;-94
2021/12/29 06:24:36;;;;;;;;;;;;;;;5.05;62.77;99433.41;6320570;22;891;-96
2021/12/29 06:27:03;;;;;;;;;;;;;;;5.03;62.81;99438.13;6319967;22;1942;-94
2021/12/29 06:29:29;;;;;;;;;;;;;;;5.05;62.66;99442.25;6317374;22;1292;-96
2021/12/29 06:31:56;;;;;;;;;;;;;;;5.07;62.68;99448.19;6320673;22;1285;-94
2021/12/29 06:34:22;;;;;;;;;;;;;;;5.06;62.69;99443.06;6318669;22;1161;-95
2021/12/29 06:36:49;;;;;;;;;;;;;;;5.06;62.69;99443.06;6319779;22;1130;-95
2021/12/29 06:39:15;;;;;;;;;;;;;;;5.05;62.67;99441.44;6317921;22;1335;-95
2021/12/29 06:41:42;;;;;;;;;;;;;;;5.06;62.56;99456.41;6318689;22;1315;-94
2021/12/29 06:44:08;;;;;;;;;;;;;;;5.06;62.74;99459.06;6319236;22;1198;-95
2021/12/29 06:46:35;;;;;;;;;;;;;;;5.06;62.69;99459.06;6320461;22;1161;-96
2021/12/29 06:49:07;;;;;;;;;;;;;;;5.07;62.55;99458.06;6312264;22;1955;-95
2021/12/29 06:51:38;;;;;;;;;;;;;;;5.04;62.89;99464.63;6312870;22;1224;-96
2021/12/29 06:54:13;;;;;;;;;;;;;;;5.04;62.81;99463.81;6312277;22;1280;-96
2021/12/29 06:56:39;;;;;;;;;;;;;;;5.02;62.70;99464.00;6312048;22;1349;-95
2021/12/29 06:59:06;;;;;;;;;;;;;;;5.04;62.82;99485.97;6312915;22;1201;-96
2021/12/29 07:01:33;;;;;;;;;;;;;;;5.06;62.53;99483.09;6314199;22;1474;-95
2021/12/29 07:04:01;;;;;;;;;;;;;;;5.03;62.61;99483.50;6314530;22;1306;-94
2021/12/29 07:06:27;;;;;;;;;;;;;;;5.02;62.70;99480.03;6313522;22;1323;-94
2021/12/29 07:08:54;;;;;;;;;;;;;;;5.03;62.72;99488.84;6312153;22;1881;-95
2021/12/29 07:11:20;;;;;;;;;;;;;;;5.04;62.58;99485.16;6314015;22;1296;-93
2021/12/29 07:13:47;;;;;;;;;;;;;;;5.04;62.52;99498.50;6315187;22;1201;-96
2021/12/29 07:16:14;;;;;;;;;;;;;;;5.01;62.65;99503.22;6316820;22;1306;-95
2021/12/29 07:18:40;;;;;;;;;;;;;;;5.00;62.70;99506.94;6317113;22;1430;-95
2021/12/29 07:21:07;;;;;;;;;;;;;;;5.08;62.47;99505.06;6315492;22;1481;-96
2021/12/29 07:23:34;;;;;;;;;;;;;;;5.03;62.68;99505.72;6317988;22;1297;-96
2021/12/29 07:26:00;;;;;;;;;;;;;;;5.04;62.64;99509.19;6317986;22;1157;-96
2021/12/29 07:28:27;;;;;;;;;;;;;;;5.04;62.56;99506.53;6319703;22;1901;-96
2021/12/29 07:30:55;;;;;;;;;;;;;;;5.05;62.45;99511.63;6319917;22;1343;-93
2021/12/29 07:33:21;;;;;;;;;;;;;;;5.05;62.32;99506.28;6321080;22;1135;-96
2021/12/29 07:35:51;;;;;;;;;;;;;;;5.06;62.38;99509.78;6320875;22;1406;-95
2021/12/29 07:38:18;;;;;;;;;;;;;;;5.01;62.46;99505.91;6315902;22;1291;-94
2021/12/29 07:40:44;;;;;;;;;;;;;;;5.02;62.59;99520.06;6318049;22;1370;-95
2021/12/29 07:43:11;;;;;;;;;;;;;;;4.99;62.60;99521.28;6317447;22;1153;-95
2021/12/29 07:45:41;;;;;;;;;;;;;;;4.99;62.63;99523.97;6317502;22;1398;-95
2021/12/29 07:48:18;;;;;;;;;;;;;;;4.98;62.84;99522.31;6318458;22;1888;-96
2021/12/29 07:50:45;;;;;;;;;;;;;;;4.97;62.68;99526.03;6319009;22;1157;-96
2021/12/29 07:53:12;;;;;;;;;;;;;;;4.97;62.60;99518.03;6319615;22;1379;-95
2021/12/29 07:55:39;;;;;;;;;;;;;;;5.01;62.61;99518.44;6323174;22;1229;-96
2021/12/29 07:58:06;;;;;;;;;;;;;;;4.98;62.53;99513.50;6322249;22;1308;-96
2021/12/29 08:00:33;;;;;;;;;;;;;;;4.96;62.73;99520.91;6325097;22;1233;-95
2021/12/29 08:02:59;;;;;;;;;;;;;;;4.98;62.51;99527.66;6325420;22;1393;-96
2021/12/29 08:05:26;;;;;;;;;;;;;;;5.01;62.45;99526.44;6325764;22;1458;-95
2021/12/29 08:07:53;;;;;;;;;;;;;;;5.02;62.48;99525.41;6324102;22;1904;-96
2021/12/29 08:10:20;;;;;;;;;;;;;;;5.03;62.33;99529.72;6325371;22;1232;-96
2021/12/29 08:12:47;;;;;;;;;;;;;;;4.99;62.54;99531.97;6326105;22;1304;-96
2021/12/29 08:15:14;;;;;;;;;;;;;;;5.00;62.69;99522.94;6322071;22;1409;-95
2021/12/29 08:17:40;;;;;;;;;;;;;;;5.00;62.68;99524.81;6323805;22;1265;-93
2021/12/29 08:20:07;;;;;;;;;;;;;;;5.00;62.32;99525.63;6321466;22;1443;-93
2021/12/29 08:22:33;;;;;;;;;;;;;;;5.04;62.58;99527.88;6321026;22;1199;-96
2021/12/29 08:25:04;;;;;;;;;;;;;;;5.02;62.28;99530.72;6322093;22;1290;-94
2021/12/29 08:27:35;;;;;;;;;;;;;;;5.04;62.34;99533.22;6323063;22;1918;-95
2021/12/29 08:30:01;;;;;;;;;;;;;;;5.04;62.44;99536.69;6320422;22;1225;-95
2021/12/29 08:32:28;;;;;;;;;;;;;;;5.01;62.32;99531.78;6322524;22;1318;-95
2021/12/29 08:34:55;;;;;;;;;;;;;;;4.98;62.53;99535.66;6325340;22;1043;-95
2021/12/29 08:37:22;;;;;;;;;;;;;;;4.98;62.51;99535.66;6327390;22;1337;-96
2021/12/29 08:39:49;;;;;;;;;;;;;;;4.98;62.62;99540.19;6328405;22;1224;-96
2021/12/29 08:42:18;;;;;;;;;;;;;;;4.97;62.64;99544.72;6328912;22;1351;-96
2021/12/29 08:44:45;;;;;;;;;;;;;;;4.97;62.60;99546.53;6328579;22;1452;-96
2021/12/29 08:47:12;;;;;;;;;;;;;;;4.97;62.67;99542.03;6324988;22;1892;-94
2021/12/29 08:49:46;;;;;;;;;;;;;;;4.97;62.43;99535.88;6320583;22;1212;-95
2021/12/29 08:52:14;;;;;;;;;;;;;;;4.97;62.60;99543.88;6322225;22;1377;-95
2021/12/29 08:54:43;;;;;;;;;;;;;;;4.99;62.58;99544.50;6323069;22;1209;-96
2021/12/29 08:57:09;;;;;;;;;;;;;;;5.03;62.33;99526.22;6327368;22;1360;-96
2021/12/29 08:59:36;;;;;;;;;;;;;;;5.06;62.36;99533.78;6328260;22;1166;-94
2021/12/29 09:02:04;;;;;;;;;;;;;;;5.06;62.14;99539.13;6318938;22;1221;-95
2021/12/29 09:04:32;;;;;;;;;;;;;;;5.02;62.37;99544.06;6313338;22;1262;-96
2021/12/29 09:06:59;;;;;;;;;;;;;;;5.05;62.12;99546.31;6314048;22;1258;-96
2021/12/29 09:09:26;;;;;;;;;;;;;;;5.04;62.31;99551.88;6314812;22;1904;-96
2021/12/29 09:11:55;;;;;;;;;;;;;;;5.03;62.33;99551.06;6314761;22;1349;-96
2021/12/29 09:14:21;;;;;;;;;;;;;;;5.00;62.60;99551.50;6314028;22;1418;-96
2021/12/29 09:16:48;;;;;;;;;;;;;;;4.97;62.61;99544.72;6317466;22;1351;-96
2021/12/29 09:19:15;;;;;;;;;;;;;;;4.95;62.49;99541.44;6316330;22;1327;-96
2021/12/29 09:21:44;;;;;;;;;;;;;;;4.98;62.35;99542.88;6317654;22;1447;-94
2021/12/29 09:24:11;;;;;;;;;;;;;;;4.98;62.68;99550.88;6316385;22;1142;-94
2021/12/29 09:26:37;;;;;;;;;;;;;;;5.00;62.59;99560.31;6315693;22;1157;-94
2021/12/29 09:29:04;;;;;;;;;;;;;;;5.03;62.26;99556.41;6318002;22;1947;-95
2021/12/29 09:31:31;;;;;;;;;;;;;;;4.99;62.35;99553.31;6317635;22;1446;-95
2021/12/29 09:33:58;;;;;;;;;;;;;;;5.04;62.32;99563.38;6318145;22;1229;-94
2021/12/29 09:36:24;;;;;;;;;;;;;;;5.03;62.60;99563.56;6319193;22;1284;-94
2021/12/29 09:38:51;;;;;;;;;;;;;;;5.00;62.37;99554.97;6320215;22;1268;-94
2021/12/29 09:41:17;;;;;;;;;;;;;;;5.03;62.38;99560.91;6317955;22;1194;-94
2021/12/29 09:43:44;;;;;;;;;;;;;;;5.00;62.27;99559.50;6319016;22;1422;-94
2021/12/29 09:46:10;;;;;;;;;;;;;;;5.00;62.45;99543.47;6320490;22;1407;-95
2021/12/29 09:48:38;;;;;;;;;;;;;;;5.02;62.31;99544.06;6321526;22;1873;-96
2021/12/29 09:51:08;;;;;;;;;;;;;;;5.02;62.43;99544.06;6320685;22;1027;-95
2021/12/29 09:53:38;;;;;;;;;;;;;;;5.01;62.67;99535.25;6321407;22;1264;-96
2021/12/29 09:56:13;;;;;;;;;;;;;;;5.01;62.42;99521.91;6326538;22;1260;-96
2021/12/29 09:58:43;;;;;;;;;;;;;;;5.01;62.52;99529.09;6320887;22;1313;-95
2021/12/29 10:01:09;;;;;;;;;;;;;;;4.99;62.64;99534.63;6317024;22;1432;-95
2021/12/29 10:03:35;;;;;;;;;;;;;;;5.01;62.43;99529.09;6319339;22;1272;-94
2021/12/29 10:06:02;;;;;;;;;;;;;;;5.03;62.47;99535.06;6318017;22;1215;-93
2021/12/29 10:08:28;;;;;;;;;;;;;;;5.03;62.31;99526.22;6315011;22;1896;-94
2021/12/29 10:10:58;;;;;;;;;;;;;;;5.03;62.44;99535.06;6316914;22;1118;-95
2021/12/29 10:13:26;;;;;;;;;;;;;;;5.03;62.44;99537.72;6336503;22;3765;-94
2021/12/29 10:24:15;;;;;;;;;;;;;;;5.05;62.33;99542.84;6359939;22;1610;-94
2021/12/29 10:26:57;;;;;;;;;;;;;;;5.04;62.60;99528.69;6360381;22;1379;-95
2021/12/29 10:29:33;;;;;;;;;;;;;;;5.04;62.59;99522.53;6363130;22;1869;-95
2021/12/29 10:35:13;;;;;;;;;;;;;;;5.08;62.34;99518.41;6366578;22;828;-95
2021/12/29 10:49:05;;;;;;;;;;;;;;;5.07;62.36;99524.78;6322384;22;1918;-95
2021/12/29 10:51:31;;;;;;;;;;;;;;;5.05;62.47;99521.50;6322686;22;1154;-96
2021/12/29 10:56:41;;;;;;;;;;;;;;;5.11;62.20;99534.81;6327458;22;3486;-95
2021/12/29 10:59:18;;;;;;;;;;;;;;;5.11;62.43;99534.00;6363248;22;1231;-94
2021/12/29 11:11:08;;;;;;;;;;;;;;;5.11;62.41;99550.84;6320450;22;1080;-94
2021/12/29 11:23:06;;;;;;;;;;;;;;;5.10;62.35;99546.53;6325999;22;1417;-95
2021/12/29 11:32:19;;;;;;;;;;;;;;;5.14;62.52;99554.94;6319567;22;941;-96
2021/12/29 11:41:29;;;;;;;;;;;;;;;5.15;62.56;99538.72;6329621;22;644;-96
2021/12/29 11:47:28;;;;;;;;;;;;;;;5.21;62.17;99542.41;6329814;22;1375;-96
2021/12/29 11:50:19;;;;;;;;;;;;;;;5.15;62.50;99548.59;6313177;22;879;-95
2021/12/29 11:52:47;;;;;;;;;;;;;;;5.17;62.42;99541.16;6299453;22;1301;-95
2021/12/29 11:55:22;;;;;;;;;;;;;;;5.17;62.48;99536.66;6328720;22;1046;-95
2021/12/29 12:01:01;;;;;;;;;;;;;;;5.18;62.29;99543.66;6220070;22;1304;-94
2021/12/29 14:13:20;;;;;;;;;;;;;;;5.41;62.45;99566.38;6388158;22;765;-96
2021/12/29 14:19:19;;;;;;;;;;;;;;;5.41;62.43;99548.50;6391003;22;659;-96
2021/12/29 14:28:38;;;;;;;;;;;;;;;5.39;62.65;99576.47;6364674;22;1935;-95
2021/12/29 14:36:42;;;;;;;;;;;;;;;5.36;62.91;99563.53;6374215;22;2239;-96
2021/12/29 14:39:10;;;;;;;;;;;;;;;5.34;62.92;99569.06;6365779;22;1185;-94
2021/12/29 14:41:42;;;;;;;;;;;;;;;5.36;62.50;99569.69;6363113;22;971;-95
2021/12/29 14:44:09;;;;;;;;;;;;;;;5.35;62.91;99568.03;6361901;22;1239;-94
2021/12/29 14:46:35;;;;;;;;;;;;;;;5.37;62.67;99573.16;6359927;22;1304;-95
2021/12/29 14:49:02;;;;;;;;;;;;;;;5.37;62.60;99576.66;6360077;22;1889;-96
2021/12/29 14:51:29;;;;;;;;;;;;;;;5.34;62.68;99571.72;6363604;22;1119;-96
2021/12/29 14:53:59;;;;;;;;;;;;;;;5.34;62.72;99566.38;6362989;22;1301;-96
2021/12/29 14:56:28;;;;;;;;;;;;;;;5.33;62.90;99562.09;6360921;22;1626;-95
2021/12/29 14:58:54;;;;;;;;;;;;;;;5.36;62.57;99568.88;6360472;22;1580;-94
2021/12/29 15:01:23;;;;;;;;;;;;;;;5.34;62.92;99574.41;6358746;22;1262;-94
2021/12/29 15:03:50;;;;;;;;;;;;;;;5.34;62.90;99574.41;6358738;22;1718;-94
2021/12/29 15:06:19;;;;;;;;;;;;;;;5.35;62.80;99573.34;6361450;22;1379;-95
2021/12/29 15:08:46;;;;;;;;;;;;;;;5.33;62.75;99570.09;6359376;22;1916;-94
2021/12/29 15:11:14;;;;;;;;;;;;;;;5.34;62.67;99577.06;6360320;22;1260;-94
2021/12/29 15:13:45;;;;;;;;;;;;;;;5.37;62.66;99578.50;6361499;22;1354;-96
2021/12/29 15:16:13;;;;;;;;;;;;;;;5.39;62.75;99601.31;6359459;22;1611;-96
2021/12/29 15:18:43;;;;;;;;;;;;;;;5.33;62.92;99598.66;6359859;22;1673;-95
2021/12/29 15:21:10;;;;;;;;;;;;;;;5.35;62.85;99601.91;6360436;22;1324;-95
2021/12/29 15:23:37;;;;;;;;;;;;;;;5.35;62.84;99602.72;6358316;22;1382;-96
2021/12/29 15:26:04;;;;;;;;;;;;;;;5.32;63.11;99600.47;6360739;22;1281;-95
2021/12/29 15:28:34;;;;;;;;;;;;;;;5.35;62.69;99607.25;6363553;22;1947;-96
2021/12/29 15:31:00;;;;;;;;;;;;;;;5.36;62.82;99608.91;6361146;22;1318;-94
2021/12/29 15:33:28;;;;;;;;;;;;;;;5.36;62.80;99606.25;6363539;22;1274;-94
2021/12/29 15:35:55;;;;;;;;;;;;;;;5.34;62.81;99603.78;6350810;22;1393;-95
2021/12/29 15:38:22;;;;;;;;;;;;;;;5.36;62.77;99603.59;6350554;22;1299;-95
2021/12/29 15:40:48;;;;;;;;;;;;;;;5.39;62.71;99606.66;6355236;22;1200;-96
2021/12/29 15:43:15;;;;;;;;;;;;;;;5.37;62.71;99605.22;6356021;22;1222;-96
2021/12/29 15:45:42;;;;;;;;;;;;;;;5.37;62.91;99610.56;6360774;22;1083;-95
2021/12/29 15:48:35;;;;;;;;;;;;;;;5.40;62.68;99613.63;6355686;22;1908;-94
2021/12/29 15:51:03;;;;;;;;;;;;;;;5.39;62.97;99616.50;6351723;22;1277;-96
2021/12/29 15:53:36;;;;;;;;;;;;;;;5.41;62.54;99620.63;6347224;22;1383;-96
2021/12/29 15:56:06;;;;;;;;;;;;;;;5.39;62.73;99628.00;6346465;22;1386;-96
2021/12/29 15:58:37;;;;;;;;;;;;;;;5.37;62.66;99630.06;6348289;22;1382;-95
2021/12/29 16:01:10;;;;;;;;;;;;;;;5.38;62.62;99636.22;6347677;22;1253;-96
2021/12/29 16:03:41;;;;;;;;;;;;;;;5.38;62.82;99626.38;6350593;22;1161;-96
2021/12/29 16:06:07;;;;;;;;;;;;;;;5.39;62.66;99624.53;6350201;22;1297;-95
2021/12/29 16:08:34;;;;;;;;;;;;;;;5.39;62.60;99633.34;6348610;22;1892;-95
2021/12/29 16:11:01;;;;;;;;;;;;;;;5.39;62.64;99622.66;6350076;22;1232;-94
2021/12/29 16:13:29;;;;;;;;;;;;;;;5.36;62.91;99608.91;6352956;22;1288;-96
2021/12/29 16:15:56;;;;;;;;;;;;;;;5.37;62.99;99607.88;6354067;22;1597;-95
2021/12/29 16:18:22;;;;;;;;;;;;;;;5.38;62.92;99612.19;6353066;22;1350;-96
2021/12/29 16:20:56;;;;;;;;;;;;;;;5.41;62.94;99612.59;6352933;22;1387;-96
2021/12/29 16:23:34;;;;;;;;;;;;;;;5.39;62.87;99616.50;6353670;22;1181;-96
2021/12/29 16:26:02;;;;;;;;;;;;;;;5.42;62.90;99605.41;6361771;22;1220;-96
2021/12/29 16:37:49;;;;;;;;;;;;;;;5.33;63.09;99612.81;6345410;22;1738;-95
2021/12/29 16:43:05;;;;;;;;;;;;;;;5.36;62.75;99607.06;6362026;22;1277;-96
2021/12/29 16:48:13;;;;;;;;;;;;;;;5.34;62.97;99584.28;6364541;22;1545;-96
2021/12/29 16:53:27;;;;;;;;;;;;;;;5.34;62.97;99577.06;6358202;22;2138;-96
2021/12/29 16:55:54;;;;;;;;;;;;;;;5.33;62.88;99572.78;6355612;22;1267;-96
2021/12/29 16:58:21;;;;;;;;;;;;;;;5.35;62.96;99568.03;6363035;22;1244;-96